Time;durP1;ratioP1;P1;durP2;ratioP2;P2;SDS_P1;SDS_P2;PMS_P1;PMS_P2;Temp;Humidity;BMP_temperature;BMP_pressure;BME280_temperature;BME280_humidity;BME280_pressure;Samples;Min_cycle;Max_cycle;Signal;HPM_P1;HPM_P2
2021/07/08 00:01:29;;;;;;;2.90;0.55;;;20.20;88.10;;;;;;4921081;29;20047;-79
2021/07/08 00:03:56;;;;;;;3.05;0.50;;;20.20;88.00;;;;;;4917061;29;20481;-79
2021/07/08 00:06:22;;;;;;;0.60;0.60;;;20.10;88.10;;;;;;4921142;29;20040;-79
2021/07/08 00:08:48;;;;;;;1.98;0.65;;;20.10;88.30;;;;;;4937400;29;20056;-79
2021/07/08 00:11:14;;;;;;;1.13;0.73;;;20.10;88.40;;;;;;4919731;29;20507;-79
2021/07/08 00:13:39;;;;;;;2.20;0.55;;;20.10;88.00;;;;;;4919334;29;20038;-79
2021/07/08 00:16:05;;;;;;;1.23;0.50;;;20.10;87.60;;;;;;4911591;29;20039;-80
2021/07/08 00:18:31;;;;;;;1.67;0.50;;;20.10;87.30;;;;;;4906798;29;20063;-79
2021/07/08 00:20:57;;;;;;;2.55;0.60;;;20.10;87.80;;;;;;4916366;29;20039;-80
2021/07/08 00:23:23;;;;;;;1.65;0.60;;;20.10;87.80;;;;;;4920393;29;20035;-79
2021/07/08 00:25:51;;;;;;;0.40;0.40;;;20.10;87.40;;;;;;4912159;29;20086;-79
2021/07/08 00:28:17;;;;;;;1.75;0.68;;;20.10;87.20;;;;;;4901273;29;20036;-78
2021/07/08 00:30:45;;;;;;;1.15;0.52;;;20.10;87.80;;;;;;4932738;29;20110;-78
2021/07/08 00:33:11;;;;;;;3.75;0.75;;;20.10;87.80;;;;;;4904165;29;20062;-78
2021/07/08 00:35:39;;;;;;;2.38;0.80;;;20.10;87.80;;;;;;4919271;29;20039;-79
2021/07/08 00:38:05;;;;;;;1.02;0.60;;;20.00;87.80;;;;;;4937011;29;20589;-78
2021/07/08 00:40:31;;;;;;;1.05;0.70;;;20.00;88.00;;;;;;4919435;29;20130;-78
2021/07/08 00:42:57;;;;;;;2.83;0.68;;;20.00;87.60;;;;;;4920433;29;20028;-78
2021/07/08 00:45:24;;;;;;;1.20;0.70;;;20.00;87.80;;;;;;4920101;29;20072;-78
2021/07/08 00:47:52;;;;;;;2.63;0.50;;;20.00;87.90;;;;;;4915168;29;20032;-78
2021/07/08 00:50:22;;;;;;;0.85;0.60;;;19.90;88.10;;;;;;4901102;29;20032;-78
2021/07/08 00:52:47;;;;;;;3.22;0.82;;;19.90;88.30;;;;;;4900765;29;20430;-80
2021/07/08 00:55:14;;;;;;;2.95;0.60;;;19.90;88.30;;;;;;4918218;29;20036;-79
2021/07/08 00:57:41;;;;;;;2.40;0.40;;;19.90;88.60;;;;;;4900298;29;20107;-80
2021/07/08 01:00:07;;;;;;;7.07;1.58;;;19.90;88.70;;;;;;4932159;29;20390;-79
2021/07/08 01:02:34;;;;;;;0.70;0.65;;;19.80;88.70;;;;;;4936286;29;20031;-79
2021/07/08 01:05:00;;;;;;;1.63;0.43;;;19.80;88.50;;;;;;4930455;29;20039;-79
2021/07/08 01:07:26;;;;;;;0.70;0.60;;;19.80;88.70;;;;;;4939027;29;20031;-79
2021/07/08 01:09:52;;;;;;;1.98;0.57;;;19.80;88.70;;;;;;4938176;29;20069;-79
2021/07/08 01:12:18;;;;;;;1.15;0.52;;;19.80;88.50;;;;;;4956040;29;20062;-79
2021/07/08 01:14:45;;;;;;;1.58;0.50;;;19.80;88.20;;;;;;4938496;29;20031;-78
2021/07/08 01:17:11;;;;;;;0.63;0.55;;;19.70;88.30;;;;;;4938887;29;20432;-79
2021/07/08 01:19:38;;;;;;;0.88;0.55;;;19.70;88.30;;;;;;4937935;29;20029;-79
2021/07/08 01:22:05;;;;;;;2.17;0.63;;;19.60;88.60;;;;;;4938522;29;20074;-79
2021/07/08 01:24:32;;;;;;;0.70;0.50;;;19.70;88.60;;;;;;4938580;29;20034;-79
2021/07/08 01:26:58;;;;;;;0.80;0.60;;;19.60;88.90;;;;;;4938482;29;20095;-79
2021/07/08 01:29:24;;;;;;;2.20;0.60;;;19.60;89.00;;;;;;4938376;29;20031;-79
2021/07/08 01:31:50;;;;;;;0.73;0.50;;;19.60;89.30;;;;;;4955248;29;20114;-78
2021/07/08 01:34:16;;;;;;;1.15;0.50;;;19.60;89.10;;;;;;4955455;29;20081;-79
2021/07/08 01:36:42;;;;;;;1.33;0.52;;;19.60;89.40;;;;;;4937963;29;20369;-79
2021/07/08 01:39:08;;;;;;;1.80;0.90;;;19.70;89.20;;;;;;4938004;29;20031;-79
2021/07/08 01:41:33;;;;;;;1.52;0.50;;;19.70;88.80;;;;;;4937892;29;20039;-81
2021/07/08 01:44:00;;;;;;;1.50;0.60;;;19.70;89.00;;;;;;4938709;29;20031;-78
2021/07/08 01:46:26;;;;;;;1.02;0.50;;;19.60;89.30;;;;;;4938425;29;20039;-80
2021/07/08 01:48:53;;;;;;;1.35;0.60;;;19.60;90.00;;;;;;4938076;29;20035;-80
2021/07/08 01:51:30;;;;;;;1.60;0.40;;;19.60;89.80;;;;;;4955499;28;20031;-78
2021/07/08 01:53:57;;;;;;;0.77;0.55;;;19.50;89.90;;;;;;4937735;29;20034;-78
2021/07/08 01:56:23;;;;;;;0.88;0.50;;;19.50;90.00;;;;;;4938240;29;20118;-80
2021/07/08 01:58:50;;;;;;;3.53;0.68;;;19.50;90.00;;;;;;4932169;29;20055;-79
2021/07/08 02:01:16;;;;;;;2.38;0.70;;;19.50;90.00;;;;;;4918343;29;20036;-79
2021/07/08 02:03:42;;;;;;;1.75;0.70;;;19.50;90.00;;;;;;4917794;29;20082;-79
2021/07/08 02:06:08;;;;;;;1.92;0.63;;;19.50;89.90;;;;;;4918517;29;20124;-80
2021/07/08 02:08:36;;;;;;;1.20;0.60;;;19.50;90.20;;;;;;4935455;29;20051;-79
2021/07/08 02:11:05;;;;;;;1.02;0.52;;;19.60;90.20;;;;;;4935602;29;20030;-79
2021/07/08 02:13:33;;;;;;;1.70;0.80;;;19.60;90.10;;;;;;4918771;29;20473;-79
2021/07/08 02:16:01;;;;;;;2.42;0.80;;;19.60;90.00;;;;;;4918745;29;20075;-79
2021/07/08 02:18:27;;;;;;;2.25;0.68;;;19.60;89.90;;;;;;4918437;29;20062;-80
2021/07/08 02:20:52;;;;;;;3.50;0.93;;;19.60;89.70;;;;;;4934860;29;20532;-79
2021/07/08 02:23:18;;;;;;;1.05;0.70;;;19.60;90.10;;;;;;4918505;29;20030;-78
2021/07/08 02:25:44;;;;;;;1.60;0.70;;;19.60;90.20;;;;;;4917899;29;20531;-79
2021/07/08 02:28:11;;;;;;;0.73;0.60;;;19.60;90.30;;;;;;4918276;29;20095;-79
2021/07/08 02:30:37;;;;;;;0.77;0.55;;;19.60;90.20;;;;;;4935204;29;20474;-79
2021/07/08 02:33:03;;;;;;;1.65;0.57;;;19.60;90.10;;;;;;4936014;29;20059;-79
2021/07/08 02:35:29;;;;;;;3.60;0.80;;;19.50;90.20;;;;;;4918857;29;20175;-79
2021/07/08 02:37:55;;;;;;;0.93;0.70;;;19.50;90.40;;;;;;4935098;29;20102;-79
2021/07/08 02:40:30;;;;;;;1.98;1.00;;;19.50;90.40;;;;;;4918545;29;20062;-79
2021/07/08 02:42:56;;;;;;;2.42;0.88;;;19.60;90.50;;;;;;4918248;29;20485;-79
2021/07/08 02:45:25;;;;;;;2.70;0.85;;;19.60;90.50;;;;;;4918430;29;20035;-79
2021/07/08 02:47:53;;;;;;;2.28;0.80;;;19.50;90.40;;;;;;4934380;29;20031;-79
2021/07/08 02:50:20;;;;;;;0.80;0.60;;;19.60;90.50;;;;;;4918387;29;20032;-78
2021/07/08 02:52:46;;;;;;;1.85;0.75;;;19.50;90.80;;;;;;4918235;29;20114;-79
2021/07/08 02:55:13;;;;;;;1.63;0.80;;;19.50;90.90;;;;;;4918598;29;20036;-79
2021/07/08 02:57:39;;;;;;;2.22;0.88;;;19.50;90.90;;;;;;4917774;29;20060;-79
2021/07/08 03:00:07;;;;;;;2.83;0.60;;;19.50;90.80;;;;;;4949876;29;20138;-79
2021/07/08 03:02:33;;;;;;;2.08;0.70;;;19.50;90.90;;;;;;4937688;29;20039;-81
2021/07/08 03:04:59;;;;;;;3.67;0.90;;;19.40;90.90;;;;;;4947062;29;20061;-79
2021/07/08 03:07:24;;;;;;;1.45;0.60;;;19.30;91.20;;;;;;4938450;29;20027;-79
2021/07/08 03:09:50;;;;;;;1.67;0.80;;;19.30;91.20;;;;;;4938631;29;20036;-79
2021/07/08 03:12:15;;;;;;;1.00;0.80;;;19.20;91.30;;;;;;4922122;29;20032;-79
2021/07/08 03:14:41;;;;;;;1.50;0.75;;;19.20;91.20;;;;;;4921602;29;20127;-79
2021/07/08 03:17:07;;;;;;;4.15;0.80;;;19.30;91.10;;;;;;4922041;29;20066;-80
2021/07/08 03:19:32;;;;;;;2.53;1.50;;;19.30;91.10;;;;;;4921055;29;20473;-82
2021/07/08 03:21:58;;;;;;;1.58;0.85;;;19.30;91.20;;;;;;4921641;29;20039;-79
2021/07/08 03:24:24;;;;;;;4.50;1.38;;;19.20;91.40;;;;;;4921532;29;20027;-78
2021/07/08 03:26:49;;;;;;;1.75;0.60;;;19.10;91.70;;;;;;4920768;29;20509;-79
2021/07/08 03:29:15;;;;;;;2.45;1.13;;;19.10;91.70;;;;;;4921377;29;20047;-79
2021/07/08 03:31:41;;;;;;;4.18;0.88;;;19.10;91.80;;;;;;4921117;29;20043;-78
2021/07/08 03:34:06;;;;;;;1.30;0.90;;;19.10;91.90;;;;;;4925751;29;20023;-78
2021/07/08 03:36:32;;;;;;;3.00;1.05;;;19.20;91.90;;;;;;4940757;29;20443;-79
2021/07/08 03:38:58;;;;;;;1.30;0.70;;;19.20;91.80;;;;;;4940441;29;20031;-79
2021/07/08 03:41:23;;;;;;;2.25;0.68;;;19.30;91.70;;;;;;4940457;29;20023;-79
2021/07/08 03:43:49;;;;;;;1.00;0.90;;;19.40;91.50;;;;;;4957126;29;20023;-79
2021/07/08 03:46:14;;;;;;;2.45;0.80;;;19.40;91.50;;;;;;4940458;29;20031;-79
2021/07/08 03:48:40;;;;;;;2.65;0.90;;;19.40;91.40;;;;;;4939766;29;20028;-79
2021/07/08 03:51:06;;;;;;;2.65;1.00;;;19.40;91.40;;;;;;4940437;29;20109;-79
2021/07/08 03:53:31;;;;;;;1.88;0.77;;;19.40;91.40;;;;;;4940525;29;20540;-78
2021/07/08 03:55:57;;;;;;;3.10;1.00;;;19.40;91.50;;;;;;4939867;29;20035;-79
2021/07/08 03:58:22;;;;;;;1.63;0.80;;;19.40;91.60;;;;;;4956684;29;20066;-79
2021/07/08 04:00:48;;;;;;;1.13;0.60;;;19.40;91.50;;;;;;4939951;29;20532;-80
2021/07/08 04:03:16;;;;;;;3.60;0.90;;;19.30;91.60;;;;;;4957772;29;20078;-80
2021/07/08 04:05:43;;;;;;;2.50;0.85;;;19.30;91.50;;;;;;4956547;29;20067;-78
2021/07/08 04:08:09;;;;;;;1.20;0.85;;;19.30;91.70;;;;;;4939412;29;20024;-78
2021/07/08 04:10:37;;;;;;;2.00;0.70;;;19.30;91.50;;;;;;4939109;29;20028;-77
2021/07/08 04:13:11;;;;;;;3.28;1.10;;;19.30;91.50;;;;;;4956883;29;20110;-77
2021/07/08 04:15:38;;;;;;;2.72;1.10;;;19.30;91.50;;;;;;4938070;29;20449;-78
2021/07/08 04:18:04;;;;;;;4.75;0.88;;;19.30;91.60;;;;;;4939848;29;20385;-79
2021/07/08 04:20:31;;;;;;;3.90;1.10;;;19.20;91.60;;;;;;4939519;29;20031;-80
2021/07/08 04:22:57;;;;;;;1.27;0.80;;;19.20;91.60;;;;;;4938885;29;20058;-79
2021/07/08 04:25:23;;;;;;;2.40;0.85;;;19.20;91.60;;;;;;4939215;29;20487;-79
2021/07/08 04:27:49;;;;;;;6.75;3.58;;;19.10;91.70;;;;;;4938460;29;20024;-79
2021/07/08 04:30:17;;;;;;;7.85;4.90;;;19.00;92.00;;;;;;4939011;29;20038;-78
2021/07/08 04:32:43;;;;;;;5.78;1.65;;;19.00;92.10;;;;;;4939385;29;20035;-80
2021/07/08 04:35:11;;;;;;;1.45;1.00;;;19.10;92.10;;;;;;4939690;29;20046;-79
2021/07/08 04:37:42;;;;;;;2.78;0.80;;;19.20;92.10;;;;;;4939152;29;20055;-78
2021/07/08 04:40:10;;;;;;;3.47;0.60;;;19.20;92.10;;;;;;4938573;29;20027;-78
2021/07/08 04:42:36;;;;;;;0.93;0.77;;;19.20;92.00;;;;;;4938636;29;20030;-79
2021/07/08 04:45:02;;;;;;;2.75;0.63;;;19.20;92.00;;;;;;4938878;29;20358;-79
2021/07/08 04:47:28;;;;;;;2.25;0.70;;;19.20;92.00;;;;;;4938548;29;20049;-79
2021/07/08 04:49:53;;;;;;;1.40;1.00;;;19.20;92.20;;;;;;4955409;29;20031;-78
2021/07/08 04:52:19;;;;;;;1.35;1.00;;;19.10;92.10;;;;;;4938820;29;20444;-78
2021/07/08 04:54:44;;;;;;;3.50;0.82;;;19.30;92.10;;;;;;4938470;29;20035;-78
2021/07/08 04:57:10;;;;;;;3.90;0.80;;;19.20;91.90;;;;;;4938679;29;20038;-78
2021/07/08 04:59:36;;;;;;;2.70;0.93;;;19.20;91.90;;;;;;4927219;29;20055;-79
2021/07/08 05:02:01;;;;;;;2.20;0.80;;;19.30;91.80;;;;;;4936703;29;20508;-78
2021/07/08 05:04:27;;;;;;;1.98;0.90;;;19.30;91.70;;;;;;4919460;29;20068;-78
2021/07/08 05:06:53;;;;;;;3.30;1.00;;;19.40;91.70;;;;;;4919158;29;20043;-78
2021/07/08 05:09:18;;;;;;;1.65;1.00;;;19.40;91.60;;;;;;4919122;29;20464;-79
2021/07/08 05:11:44;;;;;;;2.80;1.48;;;19.50;91.60;;;;;;4918747;29;20028;-78
2021/07/08 05:14:09;;;;;;;4.10;1.00;;;19.50;91.50;;;;;;4936745;29;20047;-78
2021/07/08 05:16:35;;;;;;;2.25;0.85;;;19.50;91.60;;;;;;4919567;29;20036;-79
2021/07/08 05:19:01;;;;;;;0.98;0.82;;;19.40;91.50;;;;;;4919538;29;20132;-79
2021/07/08 05:21:26;;;;;;;1.48;0.80;;;19.50;91.50;;;;;;4908767;29;20072;-79
2021/07/08 05:23:57;;;;;;;1.85;0.70;;;19.50;91.40;;;;;;4916575;29;20462;-78
2021/07/08 05:26:26;;;;;;;1.17;0.77;;;19.60;91.60;;;;;;4917292;29;20028;-78
2021/07/08 05:28:52;;;;;;;1.83;0.95;;;19.70;91.60;;;;;;4916243;29;20087;-79
2021/07/08 05:31:17;;;;;;;1.30;0.70;;;19.70;91.50;;;;;;4900223;29;20035;-78
2021/07/08 05:33:43;;;;;;;1.30;0.95;;;19.60;91.40;;;;;;4917487;29;20393;-78
2021/07/08 05:36:08;;;;;;;1.27;0.90;;;19.60;91.60;;;;;;4919315;29;20035;-78
2021/07/08 05:38:34;;;;;;;3.15;0.90;;;19.70;91.50;;;;;;4918907;29;20031;-79
2021/07/08 05:41:00;;;;;;;2.25;0.80;;;19.70;91.40;;;;;;4918688;29;20032;-79
2021/07/08 05:43:25;;;;;;;1.98;0.70;;;19.70;91.40;;;;;;4919046;29;20028;-79
2021/07/08 05:45:51;;;;;;;2.38;1.00;;;19.70;91.40;;;;;;4918010;29;20114;-79
2021/07/08 05:48:18;;;;;;;1.30;0.90;;;19.60;91.50;;;;;;4935810;29;20028;-79
2021/07/08 05:50:44;;;;;;;2.53;0.90;;;19.60;91.50;;;;;;4918191;29;20063;-79
2021/07/08 05:53:10;;;;;;;4.88;0.80;;;19.70;91.60;;;;;;4918926;29;20055;-79
2021/07/08 05:55:35;;;;;;;2.30;0.90;;;19.70;91.50;;;;;;4935577;29;20028;-79
2021/07/08 05:58:01;;;;;;;3.60;1.10;;;19.70;91.40;;;;;;4918882;29;20079;-79
2021/07/08 06:00:27;;;;;;;1.83;0.73;;;19.80;91.30;;;;;;4935838;29;20059;-78
2021/07/08 06:02:53;;;;;;;1.00;0.68;;;19.70;91.40;;;;;;4937263;29;20206;-78
2021/07/08 06:05:19;;;;;;;1.77;0.88;;;19.70;91.50;;;;;;4955106;29;20023;-79
2021/07/08 06:07:44;;;;;;;2.17;1.10;;;19.70;91.40;;;;;;4954363;29;20024;-78
2021/07/08 06:10:10;;;;;;;3.33;0.85;;;19.80;91.40;;;;;;4937775;29;20031;-78
2021/07/08 06:12:36;;;;;;;1.42;0.90;;;19.80;91.40;;;;;;4954257;29;20027;-78
2021/07/08 06:15:03;;;;;;;1.23;0.90;;;19.70;91.50;;;;;;4937633;29;20511;-77
2021/07/08 06:17:29;;;;;;;2.63;0.82;;;19.70;91.50;;;;;;4937704;29;20059;-77
2021/07/08 06:19:54;;;;;;;1.20;0.85;;;19.80;91.50;;;;;;4954204;29;20073;-79
2021/07/08 06:22:20;;;;;;;1.85;1.20;;;19.80;91.40;;;;;;4937512;29;20123;-77
2021/07/08 06:24:46;;;;;;;1.45;1.00;;;19.80;91.50;;;;;;4937019;29;20488;-77
2021/07/08 06:27:11;;;;;;;1.05;0.80;;;19.80;91.40;;;;;;4954780;29;20027;-78
2021/07/08 06:29:37;;;;;;;2.95;0.80;;;19.90;91.50;;;;;;4936806;29;20062;-79
2021/07/08 06:32:03;;;;;;;2.08;0.80;;;19.90;91.30;;;;;;4937627;29;20039;-78
2021/07/08 06:34:28;;;;;;;2.58;1.08;;;19.90;91.30;;;;;;4937733;29;20038;-79
2021/07/08 06:36:54;;;;;;;1.60;0.95;;;19.90;91.00;;;;;;4937147;29;20036;-79
2021/07/08 06:39:19;;;;;;;1.02;0.90;;;20.00;91.00;;;;;;4958087;29;20151;-79
2021/07/08 06:41:45;;;;;;;3.05;1.00;;;20.00;90.90;;;;;;4955076;28;20034;-79
2021/07/08 06:44:11;;;;;;;4.82;1.10;;;20.00;90.80;;;;;;4960480;28;20396;-79
2021/07/08 06:46:38;;;;;;;1.60;1.00;;;20.10;91.00;;;;;;4960129;28;20027;-79
2021/07/08 06:49:04;;;;;;;1.35;0.90;;;20.20;90.60;;;;;;4963360;28;20316;-78
2021/07/08 06:51:30;;;;;;;0.77;0.55;;;20.20;90.50;;;;;;4957989;29;20020;-78
2021/07/08 06:53:55;;;;;;;1.67;0.80;;;20.30;90.50;;;;;;4940594;29;20031;-78
2021/07/08 06:56:23;;;;;;;3.60;0.90;;;20.30;90.50;;;;;;4958029;28;20027;-79
2021/07/08 06:58:49;;;;;;;1.88;0.90;;;20.30;90.50;;;;;;4940224;29;20051;-79
2021/07/08 07:01:16;;;;;;;3.83;0.80;;;20.30;90.40;;;;;;4940861;29;20094;-79
2021/07/08 07:03:41;;;;;;;2.00;0.85;;;20.30;90.40;;;;;;4956839;28;20019;-79
2021/07/08 07:06:07;;;;;;;2.25;0.98;;;20.30;90.60;;;;;;4941145;29;20038;-79
2021/07/08 07:08:33;;;;;;;1.88;0.80;;;20.40;90.70;;;;;;4957088;29;20102;-79
2021/07/08 07:11:00;;;;;;;1.52;0.88;;;20.40;90.30;;;;;;4942070;29;20042;-78
2021/07/08 07:13:26;;;;;;;3.92;0.90;;;20.40;90.30;;;;;;4957886;29;20094;-79
2021/07/08 07:15:52;;;;;;;1.52;0.98;;;20.40;90.40;;;;;;4940283;29;20044;-79
2021/07/08 07:18:17;;;;;;;2.10;0.95;;;20.40;90.30;;;;;;4940864;29;20023;-79
2021/07/08 07:20:43;;;;;;;2.10;0.90;;;20.50;90.20;;;;;;4940163;29;20054;-79
2021/07/08 07:23:09;;;;;;;1.75;0.88;;;20.50;90.30;;;;;;4940881;29;20511;-80
2021/07/08 07:25:39;;;;;;;6.93;0.95;;;20.60;90.00;;;;;;4940135;29;20392;-80
2021/07/08 07:28:07;;;;;;;1.77;0.70;;;20.60;90.00;;;;;;4940892;29;20031;-80
2021/07/08 07:30:32;;;;;;;2.35;0.90;;;20.70;90.00;;;;;;4940568;29;20099;-79
2021/07/08 07:32:58;;;;;;;3.15;0.90;;;20.80;90.00;;;;;;4939902;29;20469;-79
2021/07/08 07:35:25;;;;;;;1.80;0.65;;;20.80;89.20;;;;;;4940396;29;20046;-79
2021/07/08 07:37:51;;;;;;;2.80;0.80;;;20.90;89.10;;;;;;4939996;29;20027;-79
2021/07/08 07:40:17;;;;;;;2.75;0.63;;;21.00;89.00;;;;;;4957206;29;20030;-79
2021/07/08 07:42:43;;;;;;;1.98;0.85;;;21.10;88.90;;;;;;4939869;29;20031;-79
2021/07/08 07:45:10;;;;;;;1.00;0.70;;;21.30;88.50;;;;;;4940220;29;20042;-79
2021/07/08 07:47:36;;;;;;;1.98;0.90;;;21.30;88.40;;;;;;4957003;29;20031;-80
2021/07/08 07:50:04;;;;;;;2.45;0.60;;;21.40;88.00;;;;;;4957251;28;20027;-79
2021/07/08 07:52:30;;;;;;;2.05;0.80;;;21.50;88.10;;;;;;4956932;29;20098;-80
2021/07/08 07:54:55;;;;;;;1.90;0.93;;;21.50;87.30;;;;;;4940070;29;20310;-80
2021/07/08 07:57:21;;;;;;;8.73;2.40;;;21.40;87.10;;;;;;4940702;29;20038;-80
2021/07/08 07:59:47;;;;;;;3.92;1.17;;;21.50;87.80;;;;;;4938911;29;20086;-79
2021/07/08 08:02:13;;;;;;;4.03;1.35;;;21.50;87.70;;;;;;4957221;29;20031;-79
2021/07/08 08:10:09;;;;;;;4.80;1.08;;;21.60;86.40;;;;;;4956843;29;20059;-80
2021/07/08 08:12:35;;;;;;;3.05;0.73;;;21.80;85.70;;;;;;4939229;29;20461;-82
2021/07/08 08:15:06;;;;;;;1.52;0.73;;;21.80;85.00;;;;;;4939951;29;20094;-79
2021/07/08 08:17:33;;;;;;;;;;;21.90;84.50;;;;;;4940518;29;20054;-79
2021/07/08 08:19:59;;;;;;;4.45;0.82;;;21.90;84.70;;;;;;4956884;29;20001;-79
2021/07/08 08:22:24;;;;;;;3.72;1.20;;;21.90;85.80;;;;;;4939759;29;20472;-79
2021/07/08 08:24:52;;;;;;;2.35;1.00;;;21.90;85.80;;;;;;4939136;29;20122;-80
2021/07/08 08:27:17;;;;;;;5.10;1.67;;;21.90;85.30;;;;;;4939744;29;20031;-81
2021/07/08 08:29:43;;;;;;;3.83;1.50;;;21.80;85.50;;;;;;4949476;29;20443;-81
2021/07/08 08:32:09;;;;;;;3.55;1.00;;;21.80;85.40;;;;;;4931240;29;20053;-82
2021/07/08 08:34:35;;;;;;;3.78;1.00;;;21.70;85.40;;;;;;4947003;29;20034;-80
2021/07/08 08:37:01;;;;;;;2.20;1.00;;;21.60;85.70;;;;;;4956584;29;20027;-77
2021/07/08 08:39:27;;;;;;;2.85;1.05;;;21.60;86.30;;;;;;4939016;29;20031;-79
2021/07/08 08:41:52;;;;;;;5.45;1.67;;;21.50;88.00;;;;;;4938394;29;20030;-78
2021/07/08 08:44:18;;;;;;;7.35;1.30;;;21.50;87.10;;;;;;4939491;29;20034;-78
2021/07/08 08:46:44;;;;;;;1.15;0.80;;;21.50;86.60;;;;;;4955855;29;20483;-78
2021/07/08 08:49:10;;;;;;;5.22;1.77;;;21.50;86.40;;;;;;4939151;29;20460;-77
2021/07/08 08:51:36;;;;;;;5.93;1.90;;;21.50;86.40;;;;;;4955616;29;20445;-82
2021/07/08 08:54:03;;;;;;;3.45;1.30;;;21.50;87.30;;;;;;4938738;29;20034;-77
2021/07/08 08:56:29;;;;;;;3.42;1.27;;;21.50;88.30;;;;;;4938991;29;20035;-78
2021/07/08 08:58:54;;;;;;;2.42;1.05;;;21.50;88.70;;;;;;4955567;29;20043;-80
2021/07/08 09:01:20;;;;;;;3.40;1.13;;;21.50;88.70;;;;;;4955260;28;20038;-81
2021/07/08 09:03:47;;;;;;;3.55;1.30;;;21.50;89.30;;;;;;4938384;29;20135;-83
2021/07/08 09:06:14;;;;;;;2.53;1.20;;;21.50;89.80;;;;;;4942609;28;20038;-78
2021/07/08 09:08:45;;;;;;;5.32;1.23;;;21.40;90.00;;;;;;4975391;28;20054;-78
2021/07/08 09:11:18;;;;;;;1.93;1.20;;;21.40;90.20;;;;;;4958548;28;20035;-77
2021/07/08 09:13:48;;;;;;;2.90;1.20;;;21.30;90.50;;;;;;4975659;28;20260;-78
2021/07/08 09:16:16;;;;;;;3.05;1.35;;;21.40;90.60;;;;;;4976356;28;20039;-77
2021/07/08 09:18:42;;;;;;;2.75;1.17;;;21.40;90.80;;;;;;4975908;28;20050;-78
2021/07/08 09:21:20;;;;;;;3.30;1.15;;;21.30;90.90;;;;;;4960016;28;20109;-78
2021/07/08 09:24:06;;;;;;;3.42;1.20;;;21.30;90.60;;;;;;4958613;28;20046;-79
2021/07/08 09:26:33;;;;;;;2.38;1.10;;;21.20;90.60;;;;;;4958311;28;20072;-78
2021/07/08 09:29:10;;;;;;;2.60;0.98;;;21.10;90.60;;;;;;4957806;28;20038;-79
2021/07/08 09:31:37;;;;;;;1.38;0.80;;;21.10;90.70;;;;;;4958457;28;20031;-80
2021/07/08 09:34:17;;;;;;;2.22;1.17;;;21.10;90.20;;;;;;4972609;28;20465;-79
2021/07/08 09:36:43;;;;;;;1.67;1.02;;;21.00;90.10;;;;;;4957756;29;20027;-77
2021/07/08 09:39:11;;;;;;;2.53;0.80;;;21.00;90.00;;;;;;4938019;29;20023;-78
2021/07/08 09:41:47;;;;;;;2.00;1.05;;;21.00;90.10;;;;;;4937504;29;20020;-79
2021/07/08 09:44:24;;;;;;;4.40;1.88;;;21.00;90.40;;;;;;4935696;29;20019;-79
2021/07/08 09:46:50;;;;;;;3.67;1.35;;;20.90;90.70;;;;;;4938053;29;20062;-78
2021/07/08 09:49:17;;;;;;;3.38;1.20;;;20.80;91.10;;;;;;4939222;29;20067;-79
2021/07/08 09:51:44;;;;;;;1.58;1.40;;;20.90;91.30;;;;;;4955250;29;20031;-78
2021/07/08 09:54:25;;;;;;;2.03;1.40;;;20.80;91.70;;;;;;4939931;29;20034;-78
2021/07/08 09:56:55;;;;;;;4.88;1.50;;;20.90;91.80;;;;;;4955554;29;20166;-80
2021/07/08 09:59:33;;;;;;;3.78;1.65;;;21.00;91.80;;;;;;4956144;29;20098;-79
2021/07/08 10:01:59;;;;;;;7.13;1.60;;;21.00;91.90;;;;;;4936507;29;20027;-80
2021/07/08 10:04:25;;;;;;;3.17;1.80;;;21.00;92.00;;;;;;4939915;29;20035;-81
2021/07/08 10:06:53;;;;;;;3.47;1.70;;;21.00;92.40;;;;;;4938941;29;20027;-81
2021/07/08 10:09:20;;;;;;;3.50;1.88;;;21.00;92.40;;;;;;4956105;29;20022;-79
2021/07/08 10:11:49;;;;;;;5.75;2.25;;;20.80;92.60;;;;;;4936530;29;20032;-78
2021/07/08 10:14:17;;;;;;;6.38;2.15;;;20.80;92.80;;;;;;4935752;29;20015;-79
2021/07/08 10:16:50;;;;;;;8.32;3.17;;;20.70;93.00;;;;;;4954925;29;20031;-78
2021/07/08 10:19:21;;;;;;;7.93;3.90;;;20.70;93.20;;;;;;4936761;29;20050;-79
2021/07/08 10:21:49;;;;;;;9.52;4.53;;;20.60;93.40;;;;;;4954603;29;20031;-79
2021/07/08 10:24:16;;;;;;;4.70;3.03;;;20.50;93.50;;;;;;4938419;29;20031;-79
2021/07/08 10:26:44;;;;;;;9.45;3.38;;;20.50;93.40;;;;;;4956960;29;20059;-80
2021/07/08 10:29:11;;;;;;;7.93;3.22;;;20.60;93.30;;;;;;4938545;29;20035;-86
2021/07/08 10:31:40;;;;;;;6.60;2.70;;;20.50;93.20;;;;;;4938594;29;20036;-82
2021/07/08 10:34:14;;;;;;;3.95;2.75;;;20.40;93.30;;;;;;4938736;29;20051;-80
2021/07/08 10:36:49;;;;;;;3.75;2.65;;;20.50;93.60;;;;;;4936828;29;20047;-79
2021/07/08 10:39:19;;;;;;;5.13;2.70;;;20.50;93.20;;;;;;4938709;29;20027;-84
2021/07/08 10:41:48;;;;;;;6.57;3.00;;;20.50;92.90;;;;;;4955130;29;20035;-77
2021/07/08 10:44:50;;;;;;;5.50;2.97;;;20.60;93.00;;;;;;4956218;28;20110;-86
2021/07/08 10:47:39;;;;;;;5.38;3.13;;;20.60;92.90;;;;;;4881714;29;20033;-83
2021/07/08 10:50:34;;;;;;;7.25;3.00;;;20.70;92.80;;;;;;4937284;29;20094;-82
2021/07/08 10:53:13;;;;;;;39.22;22.02;;;20.80;92.60;;;;;;4924828;29;20472;-79
2021/07/08 10:55:45;;;;;;;137.75;83.07;;;20.80;92.80;;;;;;4937586;28;20086;-80
2021/07/08 10:58:40;;;;;;;14.90;9.65;;;20.80;92.80;;;;;;4940930;29;20480;-83
2021/07/08 11:01:30;;;;;;;9.75;5.28;;;20.80;92.90;;;;;;4956103;29;20043;-82
2021/07/08 11:04:01;;;;;;;8.50;4.25;;;20.80;93.10;;;;;;4938177;29;20455;-82
2021/07/08 11:06:33;;;;;;;5.13;3.10;;;20.80;93.10;;;;;;4956381;29;20066;-80
2021/07/08 11:09:06;;;;;;;4.55;3.10;;;20.80;93.40;;;;;;4937153;29;20106;-81
2021/07/08 11:11:35;;;;;;;7.78;2.78;;;20.70;93.20;;;;;;4936951;29;20031;-81
2021/07/08 11:14:06;;;;;;;3.97;2.40;;;20.80;92.70;;;;;;4936275;29;20054;-80
2021/07/08 11:16:43;;;;;;;5.22;2.58;;;20.80;92.60;;;;;;4954222;29;20039;-81
2021/07/08 11:19:29;;;;;;;5.68;2.78;;;20.80;92.70;;;;;;4937497;29;20035;-80
2021/07/08 11:22:04;;;;;;;3.72;2.42;;;20.80;92.40;;;;;;4936011;29;20308;-81
2021/07/08 11:24:48;;;;;;;6.38;2.60;;;20.80;92.40;;;;;;4939583;29;20027;-80
2021/07/08 11:27:37;;;;;;;6.93;2.30;;;20.80;92.50;;;;;;4941214;29;20045;-81
2021/07/08 11:30:11;;;;;;;4.45;2.25;;;20.80;92.40;;;;;;4959647;29;20029;-81
2021/07/08 11:32:51;;;;;;;3.50;2.50;;;20.80;92.60;;;;;;4942832;29;20035;-82
2021/07/08 11:38:00;;;;;;;4.45;2.33;;;20.70;93.00;;;;;;4957937;29;20039;-82
2021/07/08 11:40:34;;;;;;;7.05;2.58;;;20.60;93.00;;;;;;4940902;29;20027;-82
2021/07/08 11:43:13;;;;;;;2.70;2.42;;;20.60;93.00;;;;;;4940952;29;20037;-81
2021/07/08 11:45:38;;;;;;;4.57;2.25;;;20.60;93.20;;;;;;4940050;29;20150;-83
2021/07/08 11:48:04;;;;;;;3.35;2.50;;;20.60;93.20;;;;;;4940867;29;20058;-82
2021/07/08 11:50:36;;;;;;;5.20;1.88;;;20.70;93.00;;;;;;4940576;29;20477;-84
2021/07/08 11:53:08;;;;;;;5.65;2.10;;;20.80;92.80;;;;;;4940475;29;20027;-80
2021/07/08 11:55:35;;;;;;;4.97;1.95;;;20.80;92.30;;;;;;4940514;29;20046;-83
2021/07/08 11:58:03;;;;;;;3.38;1.83;;;20.90;92.50;;;;;;4957801;29;20532;-82
2021/07/08 12:00:42;;;;;;;2.13;1.77;;;20.90;92.50;;;;;;4957825;29;20057;-82
2021/07/08 12:03:23;;;;;;;3.28;1.80;;;21.00;92.10;;;;;;4939729;29;20036;-80
2021/07/08 12:05:51;;;;;;;4.22;1.63;;;20.90;92.10;;;;;;4939023;29;20382;-79
2021/07/08 12:08:25;;;;;;;2.25;1.70;;;21.00;91.70;;;;;;4952934;29;20114;-77
2021/07/08 12:11:07;;;;;;;2.15;1.45;;;21.00;91.60;;;;;;4954719;29;20035;-82
2021/07/08 12:13:50;;;;;;;2.88;1.40;;;21.00;91.50;;;;;;4931860;29;20034;-80
2021/07/08 12:16:19;;;;;;;2.53;1.60;;;20.80;91.40;;;;;;4920339;29;20062;-81
2021/07/08 12:18:50;;;;;;;2.58;1.95;;;20.80;91.60;;;;;;4935253;29;20030;-80
2021/07/08 12:21:21;;;;;;;2.47;1.40;;;20.80;91.50;;;;;;4942156;29;20068;-79
2021/07/08 12:23:47;;;;;;;2.38;1.40;;;20.90;91.40;;;;;;4955053;29;20055;-79
2021/07/08 12:26:32;;;;;;;2.17;1.27;;;20.90;91.60;;;;;;4938601;29;20035;-80
2021/07/08 12:29:29;;;;;;;1.63;1.40;;;20.90;91.70;;;;;;4937280;29;20042;-80
2021/07/08 12:32:00;;;;;;;1.85;1.58;;;20.90;91.60;;;;;;4936710;29;20233;-79
2021/07/08 12:34:37;;;;;;;;;;;20.80;91.70;;;;;;4952830;28;20047;-79
2021/07/08 12:37:17;;;;;;;2.05;1.20;;;20.80;91.70;;;;;;4929072;29;19918;-79
2021/07/08 12:39:44;;;;;;;2.20;1.20;;;20.80;91.50;;;;;;4955087;29;20082;-80
2021/07/08 12:42:21;;;;;;;3.20;1.10;;;20.90;91.10;;;;;;4955765;29;20066;-80
2021/07/08 12:44:48;;;;;;;2.20;1.40;;;21.00;90.80;;;;;;4935886;29;20126;-80
2021/07/08 12:47:14;;;;;;;2.80;1.50;;;21.10;91.20;;;;;;4938210;29;20030;-78
2021/07/08 12:49:41;;;;;;;1.65;1.42;;;21.10;91.60;;;;;;4937463;29;20186;-79
2021/07/08 12:52:10;;;;;;;1.35;1.25;;;21.20;91.50;;;;;;4952406;29;20021;-78
2021/07/08 12:54:36;;;;;;;3.63;1.58;;;21.20;91.10;;;;;;4937414;29;20081;-78
2021/07/08 12:57:16;;;;;;;2.30;1.45;;;21.30;91.60;;;;;;4937752;29;20039;-77
2021/07/08 13:00:14;;;;;;;1.92;1.13;;;21.30;90.80;;;;;;4937197;29;20051;-79
2021/07/08 13:02:39;;;;;;;0.98;0.90;;;21.30;90.10;;;;;;4906107;29;20043;-81